Time;durP1;ratioP1;P1;durP2;ratioP2;P2;SDS_P1;SDS_P2;PMS_P1;PMS_P2;Temp;Humidity;BMP_temperature;BMP_pressure;BME280_temperature;BME280_humidity;BME280_pressure;Samples;Min_cycle;Max_cycle;Signal;HPM_P1;HPM_P2
2022/05/18 05:00:40;;;;;;;4.60;4.20;;;17.00;97.20;;;;;;1708795;28;20232;-76
2022/05/18 05:01:30;;;;;;;4.88;4.13;;;17.10;97.20;;;;;;1707061;29;20213;-75
2022/05/18 05:02:22;;;;;;;4.90;4.50;;;17.10;97.20;;;;;;1711492;28;20228;-76
2022/05/18 05:03:14;;;;;;;6.07;4.57;;;17.10;97.20;;;;;;1714396;28;20716;-77
2022/05/18 05:04:09;;;;;;;4.65;4.25;;;17.20;97.20;;;;;;1714926;28;20711;-78
2022/05/18 05:05:01;;;;;;;4.13;3.83;;;17.20;97.20;;;;;;1714520;28;20237;-78
2022/05/18 05:05:52;;;;;;;4.40;4.00;;;17.20;97.20;;;;;;1714580;28;20672;-78
2022/05/18 05:06:43;;;;;;;5.20;4.30;;;17.20;97.20;;;;;;1707423;29;20294;-78
2022/05/18 05:07:34;;;;;;;4.30;3.95;;;17.30;97.20;;;;;;1707946;29;20206;-78
2022/05/18 05:08:26;;;;;;;5.80;3.70;;;17.30;97.20;;;;;;1707835;29;20210;-78
2022/05/18 05:09:17;;;;;;;4.68;4.10;;;17.30;97.20;;;;;;1708501;29;20206;-77
2022/05/18 05:10:09;;;;;;;5.23;4.73;;;17.30;97.20;;;;;;1711799;29;20208;-77
2022/05/18 05:11:00;;;;;;;4.82;4.40;;;17.30;97.20;;;;;;1708732;29;20810;-77
2022/05/18 05:11:52;;;;;;;5.40;4.20;;;17.30;97.20;;;;;;1707360;29;20221;-77
2022/05/18 05:12:45;;;;;;;4.28;3.72;;;17.30;97.20;;;;;;1712016;28;20236;-78
2022/05/18 05:13:37;;;;;;;5.38;4.30;;;17.30;97.20;;;;;;1715109;28;20217;-77
2022/05/18 05:14:28;;;;;;;4.47;3.97;;;17.40;97.20;;;;;;1715608;28;20214;-78
2022/05/18 05:15:20;;;;;;;4.20;3.80;;;17.30;97.20;;;;;;1714797;28;20289;-78
2022/05/18 05:16:12;;;;;;;4.60;4.30;;;17.40;97.20;;;;;;1712290;28;20210;-78
2022/05/18 05:17:05;;;;;;;5.30;4.72;;;17.40;97.20;;;;;;1713455;28;20198;-78
2022/05/18 05:17:55;;;;;;;5.20;4.80;;;17.40;97.20;;;;;;1712651;28;20249;-78
2022/05/18 05:18:47;;;;;;;4.33;3.97;;;17.40;97.20;;;;;;1714248;28;20202;-78
2022/05/18 05:19:38;;;;;;;5.03;4.50;;;17.40;97.20;;;;;;1715097;28;20202;-79
2022/05/18 05:20:29;;;;;;;4.13;3.83;;;17.50;97.20;;;;;;1714381;28;20202;-76
2022/05/18 05:21:20;;;;;;;6.68;4.35;;;17.50;97.20;;;;;;1714936;28;20206;-76
2022/05/18 05:22:12;;;;;;;5.30;4.40;;;17.50;97.20;;;;;;1714933;28;20204;-77
2022/05/18 05:23:03;;;;;;;4.72;4.32;;;17.50;97.20;;;;;;1714842;28;20210;-76
2022/05/18 05:23:54;;;;;;;4.80;4.10;;;17.60;97.20;;;;;;1714729;28;20205;-76
2022/05/18 05:24:45;;;;;;;4.55;4.15;;;17.60;97.20;;;;;;1714875;28;20233;-76
2022/05/18 05:25:37;;;;;;;6.30;4.40;;;17.60;97.20;;;;;;1714593;28;20213;-76
2022/05/18 05:26:28;;;;;;;4.55;4.15;;;17.60;97.20;;;;;;1714744;28;20241;-76
2022/05/18 05:27:19;;;;;;;4.60;4.20;;;17.60;97.20;;;;;;1714580;28;20201;-76
2022/05/18 05:28:10;;;;;;;4.80;4.30;;;17.70;97.20;;;;;;1715040;28;20206;-78
2022/05/18 05:29:02;;;;;;;4.10;3.70;;;17.70;97.20;;;;;;1715380;28;20204;-78
2022/05/18 05:29:53;;;;;;;4.68;4.22;;;17.70;97.20;;;;;;1714629;28;20445;-76
2022/05/18 05:30:44;;;;;;;5.07;4.67;;;17.70;97.20;;;;;;1714801;28;20222;-78
2022/05/18 05:31:37;;;;;;;5.43;4.38;;;17.80;97.20;;;;;;1714912;28;20202;-78
2022/05/18 05:32:29;;;;;;;4.93;4.43;;;17.80;97.20;;;;;;1714870;28;20572;-78
2022/05/18 05:33:19;;;;;;;5.63;4.63;;;17.80;97.20;;;;;;1714929;28;20213;-78
2022/05/18 05:34:11;;;;;;;5.03;4.63;;;17.80;97.20;;;;;;1714818;28;20202;-77
2022/05/18 05:35:03;;;;;;;4.65;4.20;;;17.90;97.20;;;;;;1714826;28;20665;-77
2022/05/18 05:35:54;;;;;;;7.93;4.93;;;17.90;97.20;;;;;;1714382;28;20197;-76
2022/05/18 05:36:45;;;;;;;5.60;4.75;;;17.90;97.20;;;;;;1714210;28;20205;-76
2022/05/18 05:37:37;;;;;;;4.60;4.20;;;17.90;97.20;;;;;;1714642;28;20293;-76
2022/05/18 05:38:28;;;;;;;4.93;4.53;;;17.90;97.20;;;;;;1714515;28;20471;-76
2022/05/18 05:39:20;;;;;;;4.60;4.20;;;18.00;97.20;;;;;;1714732;28;20201;-76
2022/05/18 05:40:11;;;;;;;4.95;4.20;;;18.00;97.20;;;;;;1714557;28;20344;-76
2022/05/18 05:41:04;;;;;;;4.55;4.15;;;18.00;97.20;;;;;;1714635;28;20234;-76
2022/05/18 05:41:54;;;;;;;5.63;4.45;;;18.00;97.20;;;;;;1714676;28;20347;-76
2022/05/18 05:42:46;;;;;;;4.00;3.60;;;18.10;97.20;;;;;;1714510;28;20704;-76
2022/05/18 05:43:39;;;;;;;5.20;4.10;;;18.10;97.20;;;;;;1714693;28;20245;-76
2022/05/18 05:44:31;;;;;;;4.80;4.35;;;18.10;97.20;;;;;;1714714;28;20272;-76
2022/05/18 05:45:22;;;;;;;7.53;4.20;;;18.20;97.20;;;;;;1714431;28;20563;-76
2022/05/18 05:46:14;;;;;;;4.50;4.10;;;18.20;97.20;;;;;;1714679;28;20579;-76
2022/05/18 05:47:08;;;;;;;4.35;3.95;;;18.20;97.20;;;;;;1714193;28;20596;-75
2022/05/18 05:47:59;;;;;;;5.45;4.38;;;18.30;97.20;;;;;;1714671;28;20210;-76
2022/05/18 05:48:50;;;;;;;4.90;4.15;;;18.30;97.20;;;;;;1714479;28;20743;-76
2022/05/18 05:49:42;;;;;;;4.60;4.20;;;18.30;97.20;;;;;;1714718;28;20845;-76
2022/05/18 05:50:33;;;;;;;4.93;4.53;;;18.40;97.20;;;;;;1714592;28;20665;-76
2022/05/18 05:51:25;;;;;;;5.17;4.67;;;18.40;97.20;;;;;;1720175;28;20607;-77
2022/05/18 05:52:16;;;;;;;4.63;3.85;;;18.40;97.20;;;;;;1718774;28;20452;-77
2022/05/18 05:53:08;;;;;;;4.83;4.43;;;18.40;97.20;;;;;;1709487;28;22329;-76
2022/05/18 05:53:58;;;;;;;5.70;4.43;;;18.50;97.20;;;;;;1708987;28;20212;-76
2022/05/18 05:54:50;;;;;;;5.67;4.43;;;18.60;97.20;;;;;;1709124;28;20198;-76
2022/05/18 05:55:41;;;;;;;6.72;4.47;;;18.70;97.20;;;;;;1709850;28;20573;-76
2022/05/18 05:56:32;;;;;;;5.30;4.80;;;18.70;97.20;;;;;;1709795;28;20206;-76
2022/05/18 05:57:23;;;;;;;4.82;4.35;;;18.80;97.20;;;;;;1708870;28;20202;-75
2022/05/18 05:58:16;;;;;;;6.20;4.17;;;18.90;97.20;;;;;;1708898;28;20286;-76
2022/05/18 05:59:07;;;;;;;6.18;4.43;;;19.00;97.20;;;;;;1706135;28;20284;-76
2022/05/18 06:00:00;;;;;;;8.17;4.40;;;19.10;97.20;;;;;;1706956;29;20214;-76
2022/05/18 06:00:51;;;;;;;5.15;4.40;;;19.10;97.20;;;;;;1706271;29;20226;-76
2022/05/18 06:01:43;;;;;;;4.45;4.05;;;19.20;97.20;;;;;;1706081;29;20190;-76
2022/05/18 06:02:35;;;;;;;4.45;4.05;;;19.30;97.20;;;;;;1706206;29;20260;-76
2022/05/18 06:03:27;;;;;;;5.90;4.70;;;19.40;97.20;;;;;;1709541;28;20697;-76
2022/05/18 06:04:19;;;;;;;8.13;3.95;;;19.50;97.20;;;;;;1709429;28;20210;-76
2022/05/18 06:05:10;;;;;;;4.78;4.38;;;19.50;97.20;;;;;;1705823;29;20595;-76
2022/05/18 06:06:02;;;;;;;3.70;3.40;;;19.60;97.20;;;;;;1706470;29;20588;-76
2022/05/18 06:06:53;;;;;;;4.10;3.80;;;19.60;97.20;;;;;;1710102;28;20213;-76
2022/05/18 06:07:46;;;;;;;4.30;3.90;;;19.70;97.20;;;;;;1709612;28;20229;-76
2022/05/18 06:08:38;;;;;;;4.80;4.40;;;19.80;97.20;;;;;;1709808;28;20220;-76
2022/05/18 06:09:30;;;;;;;6.15;3.70;;;19.90;97.20;;;;;;1710532;28;20198;-76
2022/05/18 06:10:21;;;;;;;7.82;4.50;;;19.90;97.20;;;;;;1709159;28;20206;-76
2022/05/18 06:11:13;;;;;;;4.50;4.20;;;20.00;97.20;;;;;;1708907;28;20209;-76
2022/05/18 06:12:04;;;;;;;4.88;4.40;;;20.00;97.20;;;;;;1709570;28;20210;-76
2022/05/18 06:12:56;;;;;;;5.03;4.35;;;20.10;97.20;;;;;;1706221;29;20674;-76
2022/05/18 06:13:47;;;;;;;4.88;4.32;;;20.10;97.20;;;;;;1706036;29;20211;-75
2022/05/18 06:14:39;;;;;;;5.33;4.37;;;20.20;97.20;;;;;;1708171;28;20658;-76
2022/05/18 06:15:29;;;;;;;6.07;4.13;;;20.20;97.20;;;;;;1706647;29;20237;-75
2022/05/18 06:16:21;;;;;;;4.53;4.00;;;20.30;97.20;;;;;;1705991;29;20198;-76
2022/05/18 06:17:12;;;;;;;5.78;4.47;;;20.30;97.20;;;;;;1705645;29;20682;-76
2022/05/18 06:18:06;;;;;;;4.60;4.20;;;20.30;97.20;;;;;;1708617;28;20589;-76
2022/05/18 06:18:59;;;;;;;5.75;4.20;;;20.40;97.20;;;;;;1706097;29;20281;-76
2022/05/18 06:19:51;;;;;;;4.80;4.30;;;20.40;97.20;;;;;;1708697;28;20252;-76
2022/05/18 06:20:42;;;;;;;6.13;4.68;;;20.50;97.20;;;;;;1709913;28;20312;-76
2022/05/18 06:21:34;;;;;;;4.68;4.00;;;20.50;97.20;;;;;;1710201;28;20210;-76
2022/05/18 06:22:26;;;;;;;6.30;3.47;;;20.50;97.20;;;;;;1708278;28;20700;-76
2022/05/18 06:23:18;;;;;;;5.55;4.00;;;20.60;97.20;;;;;;1709342;28;20605;-76
2022/05/18 06:24:09;;;;;;;8.27;3.95;;;20.70;97.20;;;;;;1709173;28;20205;-75
2022/05/18 06:25:01;;;;;;;5.68;4.38;;;20.70;97.20;;;;;;1708494;28;20194;-76
2022/05/18 06:25:52;;;;;;;4.57;3.92;;;20.70;97.20;;;;;;1709313;28;20216;-75
2022/05/18 06:26:44;;;;;;;4.77;3.83;;;20.80;97.20;;;;;;1709171;28;20207;-76
2022/05/18 06:27:35;;;;;;;4.00;3.58;;;20.80;97.20;;;;;;1709579;28;20488;-76
2022/05/18 06:28:27;;;;;;;5.17;3.87;;;20.80;97.20;;;;;;1709405;28;20202;-76
2022/05/18 06:29:17;;;;;;;4.57;4.00;;;20.90;97.20;;;;;;1705855;29;20266;-76
2022/05/18 06:30:11;;;;;;;4.53;4.13;;;20.90;97.20;;;;;;1706595;29;20257;-76
2022/05/18 06:31:02;;;;;;;4.50;3.55;;;21.00;97.20;;;;;;1705950;28;20485;-76
2022/05/18 06:31:54;;;;;;;4.63;3.50;;;21.00;97.20;;;;;;1705788;29;20203;-76
2022/05/18 06:32:44;;;;;;;5.28;3.50;;;21.00;97.20;;;;;;1706056;29;20798;-76
2022/05/18 06:33:39;;;;;;;4.80;3.87;;;21.10;97.20;;;;;;1710177;28;20204;-76
2022/05/18 06:34:30;;;;;;;6.18;3.45;;;21.10;97.20;;;;;;1709880;28;20607;-77
2022/05/18 06:35:22;;;;;;;3.73;3.43;;;21.10;97.20;;;;;;1709686;28;20206;-78
2022/05/18 06:36:13;;;;;;;3.80;3.50;;;21.20;97.20;;;;;;1709978;28;20198;-78
2022/05/18 06:37:05;;;;;;;4.47;3.63;;;21.20;97.20;;;;;;1708494;28;20285;-77
2022/05/18 06:37:56;;;;;;;5.35;4.18;;;21.20;97.20;;;;;;1709174;28;20214;-77
2022/05/18 06:38:48;;;;;;;4.68;3.67;;;21.20;97.20;;;;;;1709743;28;20207;-78
2022/05/18 06:39:39;;;;;;;5.63;3.50;;;21.30;97.20;;;;;;1709657;28;20195;-78
2022/05/18 06:41:38;;;;;;;3.65;3.35;;;21.30;97.20;;;;;;1718320;28;20288;-78
2022/05/18 06:42:29;;;;;;;4.32;3.40;;;21.40;97.20;;;;;;1721181;28;20668;-78
2022/05/18 06:43:21;;;;;;;5.05;3.90;;;21.40;97.20;;;;;;1721462;28;20229;-78
2022/05/18 06:44:12;;;;;;;5.05;3.42;;;21.40;97.20;;;;;;1721200;28;20224;-78
2022/05/18 06:45:04;;;;;;;3.70;3.40;;;21.40;97.20;;;;;;1721264;28;20233;-78
2022/05/18 06:45:56;;;;;;;4.95;3.92;;;21.40;97.20;;;;;;1711867;28;20209;-78
2022/05/18 06:46:48;;;;;;;5.60;4.22;;;21.50;97.20;;;;;;1709552;28;20245;-77
2022/05/18 06:47:39;;;;;;;7.32;4.15;;;21.50;97.20;;;;;;1708913;28;20657;-76
2022/05/18 06:48:31;;;;;;;4.47;3.15;;;21.50;97.20;;;;;;1709002;28;20569;-77
2022/05/18 06:49:26;;;;;;;4.10;3.70;;;21.60;97.20;;;;;;1710053;28;20249;-77
2022/05/18 06:50:17;;;;;;;5.30;3.30;;;21.60;97.20;;;;;;1709038;28;20199;-77
2022/05/18 06:51:09;;;;;;;4.63;3.40;;;21.60;97.20;;;;;;1709791;28;20278;-77
2022/05/18 06:52:00;;;;;;;4.28;3.42;;;21.60;97.20;;;;;;1709566;28;20259;-76
2022/05/18 06:52:51;;;;;;;6.20;3.93;;;21.70;97.20;;;;;;1709241;28;20225;-77
2022/05/18 06:53:42;;;;;;;3.75;3.45;;;21.70;97.20;;;;;;1709347;28;20249;-76
2022/05/18 06:54:34;;;;;;;4.40;3.43;;;21.70;97.20;;;;;;1709603;28;20202;-77
2022/05/18 06:55:25;;;;;;;3.60;3.30;;;21.80;97.20;;;;;;1708758;28;20203;-77
2022/05/18 06:56:18;;;;;;;3.53;3.33;;;21.80;97.20;;;;;;1709423;28;20199;-77
2022/05/18 06:57:08;;;;;;;5.15;4.28;;;21.90;97.20;;;;;;1709028;28;20202;-77
2022/05/18 06:58:00;;;;;;;4.87;3.50;;;21.90;97.20;;;;;;1708776;28;20202;-78
2022/05/18 06:58:52;;;;;;;4.00;3.70;;;22.00;97.20;;;;;;1705591;28;20203;-77
2022/05/18 06:59:43;;;;;;;5.55;3.47;;;22.00;97.20;;;;;;1705964;29;20221;-77
2022/05/18 07:00:34;;;;;;;4.47;3.78;;;22.00;97.20;;;;;;1705438;29;20254;-77
2022/05/18 07:01:28;;;;;;;4.03;3.73;;;22.00;97.20;;;;;;1707706;28;20197;-77
2022/05/18 07:02:18;;;;;;;3.85;3.47;;;22.10;97.20;;;;;;1734112;23;20209;-69
2022/05/18 07:03:10;;;;;;;6.97;3.77;;;22.10;97.20;;;;;;1714936;28;20244;-68
2022/05/18 07:04:02;;;;;;;4.57;3.90;;;22.10;97.20;;;;;;1715034;28;20243;-69
2022/05/18 07:04:55;;;;;;;3.05;2.85;;;22.20;97.20;;;;;;1715695;28;20775;-69
2022/05/18 07:05:46;;;;;;;4.25;3.50;;;22.20;97.20;;;;;;1715221;28;20194;-69
2022/05/18 07:06:40;;;;;;;6.13;3.93;;;22.20;97.20;;;;;;1714185;28;20232;-69
2022/05/18 07:07:30;;;;;;;3.88;3.47;;;22.30;97.20;;;;;;1714686;28;20209;-69
2022/05/18 07:08:22;;;;;;;3.73;3.10;;;22.30;97.20;;;;;;1713814;28;20200;-69
2022/05/18 07:09:15;;;;;;;4.18;3.53;;;22.30;97.20;;;;;;1715388;28;20205;-69
2022/05/18 07:10:08;;;;;;;3.90;3.22;;;22.30;97.20;;;;;;1715519;28;20840;-69
2022/05/18 07:10:59;;;;;;;5.68;3.72;;;22.40;97.20;;;;;;1715596;28;20206;-69
2022/05/18 07:11:51;;;;;;;5.33;3.60;;;22.40;97.20;;;;;;1716308;28;20194;-69
2022/05/18 07:12:41;;;;;;;4.80;3.67;;;22.40;97.20;;;;;;1714622;28;20721;-69
2022/05/18 07:13:34;;;;;;;6.03;3.63;;;22.50;97.20;;;;;;1715935;28;20669;-68
2022/05/18 07:14:27;;;;;;;6.53;3.63;;;22.50;97.20;;;;;;1714765;28;20237;-69
2022/05/18 07:15:19;;;;;;;4.13;3.70;;;22.60;97.20;;;;;;1715579;28;20197;-69
2022/05/18 07:16:09;;;;;;;5.03;3.97;;;22.60;97.20;;;;;;1715949;28;21559;-69
2022/05/18 07:17:01;;;;;;;4.20;3.53;;;22.60;97.20;;;;;;1715287;28;20197;-69
2022/05/18 07:17:52;;;;;;;3.80;3.50;;;22.70;97.20;;;;;;1715716;28;20246;-69
2022/05/18 07:18:44;;;;;;;4.50;4.00;;;22.70;97.20;;;;;;1715255;28;20202;-69
2022/05/18 07:19:35;;;;;;;4.53;3.70;;;22.80;97.20;;;;;;1716454;28;20198;-68
2022/05/18 07:20:28;;;;;;;4.23;3.83;;;22.80;97.20;;;;;;1716359;28;20256;-69
2022/05/18 07:21:20;;;;;;;4.68;3.50;;;22.80;97.20;;;;;;1715272;28;20591;-69
2022/05/18 07:22:12;;;;;;;3.10;2.90;;;22.80;97.20;;;;;;1715003;28;20205;-69
2022/05/18 07:23:02;;;;;;;5.68;3.80;;;22.90;97.20;;;;;;1715426;28;20233;-69
2022/05/18 07:23:55;;;;;;;6.20;3.40;;;22.90;97.20;;;;;;1715315;28;20213;-69
2022/05/18 07:24:45;;;;;;;5.63;4.05;;;22.90;97.20;;;;;;1715687;28;20709;-69
2022/05/18 07:25:37;;;;;;;3.90;3.40;;;23.00;97.20;;;;;;1715224;28;20662;-69
2022/05/18 07:26:29;;;;;;;5.68;3.95;;;23.00;97.20;;;;;;1714643;28;20246;-69
2022/05/18 07:27:21;;;;;;;4.03;3.25;;;23.00;97.20;;;;;;1714921;28;20202;-68
2022/05/18 07:28:11;;;;;;;3.85;3.47;;;23.10;97.20;;;;;;1716026;28;20224;-69
2022/05/18 07:29:04;;;;;;;5.73;3.70;;;23.10;97.20;;;;;;1716095;28;20209;-69
2022/05/18 07:29:55;;;;;;;3.40;3.10;;;23.10;97.20;;;;;;1713347;28;20229;-69
2022/05/18 07:30:47;;;;;;;3.80;3.50;;;23.20;97.20;;;;;;1715380;28;20197;-69
2022/05/18 07:32:45;;;;;;;4.28;3.30;;;23.20;97.20;;;;;;1714652;28;20236;-69
2022/05/18 07:33:36;;;;;;;5.70;3.40;;;23.30;97.20;;;;;;1715502;28;20297;-68
2022/05/18 07:34:28;;;;;;;4.13;3.45;;;23.30;97.20;;;;;;1714521;28;20348;-69
2022/05/18 07:35:19;;;;;;;4.22;3.53;;;23.30;97.20;;;;;;1715732;28;20261;-69
2022/05/18 07:36:12;;;;;;;4.70;3.80;;;23.40;97.20;;;;;;1715558;28;20350;-69
2022/05/18 07:37:04;;;;;;;4.05;3.65;;;23.40;97.20;;;;;;1715511;28;20453;-69
2022/05/18 07:37:57;;;;;;;5.97;3.40;;;23.50;97.20;;;;;;1714483;28;20198;-69
2022/05/18 07:38:48;;;;;;;4.22;3.83;;;23.50;97.20;;;;;;1715758;28;20198;-69
2022/05/18 07:39:40;;;;;;;4.03;3.63;;;23.50;97.20;;;;;;1716179;28;20284;-68
2022/05/18 07:40:33;;;;;;;4.15;3.60;;;23.50;97.20;;;;;;1716083;28;20452;-69
2022/05/18 07:41:25;;;;;;;3.88;3.22;;;23.60;97.20;;;;;;1715585;28;20209;-68
2022/05/18 07:42:16;;;;;;;3.90;3.35;;;23.60;97.20;;;;;;1713806;28;20341;-69
2022/05/18 07:43:07;;;;;;;4.17;3.27;;;23.60;97.20;;;;;;1713803;28;20210;-69
2022/05/18 07:43:58;;;;;;;3.67;3.38;;;23.60;97.20;;;;;;1714321;28;20657;-69
2022/05/18 07:44:50;;;;;;;3.97;3.50;;;23.70;97.20;;;;;;1715977;28;20562;-69
2022/05/18 07:45:41;;;;;;;7.97;3.72;;;23.70;97.20;;;;;;1715003;28;20228;-69
2022/05/18 07:46:33;;;;;;;4.72;3.63;;;23.70;97.20;;;;;;1714837;28;20204;-69
2022/05/18 07:47:28;;;;;;;3.70;3.40;;;23.80;97.20;;;;;;1714938;28;20197;-68
2022/05/18 07:48:20;;;;;;;3.50;3.20;;;23.80;97.20;;;;;;1715068;28;20194;-69
2022/05/18 07:49:11;;;;;;;3.88;3.05;;;23.80;97.20;;;;;;1714660;28;20194;-68
2022/05/18 07:50:04;;;;;;;4.67;3.50;;;23.90;97.20;;;;;;1715313;28;20197;-69
2022/05/18 07:50:55;;;;;;;4.07;3.63;;;23.90;97.20;;;;;;1715709;28;20205;-69
2022/05/18 07:51:48;;;;;;;4.20;3.50;;;24.00;97.20;;;;;;1714796;28;20201;-69
2022/05/18 07:52:38;;;;;;;4.40;3.30;;;24.10;97.20;;;;;;1714966;28;20501;-69
2022/05/18 07:53:30;;;;;;;3.77;3.30;;;24.10;97.20;;;;;;1716160;28;20196;-69
2022/05/18 07:54:21;;;;;;;6.15;3.28;;;24.20;97.20;;;;;;1715622;28;20381;-69
2022/05/18 07:55:13;;;;;;;3.37;3.07;;;24.20;97.20;;;;;;1715812;28;20217;-68
2022/05/18 07:56:05;;;;;;;5.43;4.22;;;24.30;97.20;;;;;;1714267;28;20313;-69
2022/05/18 07:56:57;;;;;;;4.53;3.53;;;24.30;97.20;;;;;;1715123;28;20217;-69
2022/05/18 07:57:48;;;;;;;4.80;3.65;;;24.30;97.20;;;;;;1715407;28;20213;-69
2022/05/18 07:58:39;;;;;;;5.97;3.90;;;24.40;97.20;;;;;;1715290;28;20197;-69
2022/05/18 07:59:30;;;;;;;3.42;3.13;;;24.40;97.20;;;;;;1716174;28;20210;-69
2022/05/18 08:00:24;;;;;;;4.10;3.70;;;24.40;97.20;;;;;;1714712;28;20201;-68
2022/05/18 08:01:15;;;;;;;3.72;3.35;;;24.40;97.20;;;;;;1716516;28;20672;-69
2022/05/18 08:02:07;;;;;;;4.20;3.80;;;24.40;97.20;;;;;;1716129;28;20197;-69
2022/05/18 08:02:58;;;;;;;4.57;3.30;;;24.30;97.20;;;;;;1714962;28;20226;-69
2022/05/18 08:03:50;;;;;;;4.20;3.80;;;24.40;97.20;;;;;;1715219;28;20228;-69
2022/05/18 08:04:40;;;;;;;4.20;3.80;;;24.30;97.20;;;;;;1714523;28;20229;-69
2022/05/18 08:05:33;;;;;;;6.60;3.70;;;24.30;97.20;;;;;;1714797;28;20204;-69
2022/05/18 08:06:24;;;;;;;4.22;3.60;;;24.30;97.20;;;;;;1715917;28;20296;-69
2022/05/18 08:07:17;;;;;;;3.80;3.50;;;24.40;97.20;;;;;;1714616;28;20255;-68
2022/05/18 08:08:11;;;;;;;3.88;3.45;;;24.40;97.20;;;;;;1714668;28;20221;-69
2022/05/18 08:09:04;;;;;;;3.60;3.33;;;24.40;97.20;;;;;;1714448;28;20205;-69
2022/05/18 08:15:38;;;;;;;4.25;3.50;;;24.70;97.20;;;;;;1714443;28;20573;-69
2022/05/18 08:16:31;;;;;;;3.85;3.50;;;24.80;97.20;;;;;;1715429;28;20813;-69
2022/05/18 08:17:23;;;;;;;4.30;3.90;;;24.80;97.20;;;;;;1714485;28;20224;-69
2022/05/18 08:18:15;;;;;;;5.00;3.40;;;24.80;97.20;;;;;;1714709;28;20212;-68
2022/05/18 08:19:10;;;;;;;4.43;3.58;;;24.80;97.20;;;;;;1715797;28;20664;-68
2022/05/18 08:20:04;;;;;;;3.55;3.22;;;24.90;97.20;;;;;;1715060;28;20202;-69
2022/05/18 08:20:56;;;;;;;4.50;3.50;;;24.90;97.20;;;;;;1715688;28;20257;-69
2022/05/18 08:21:48;;;;;;;3.60;3.30;;;25.00;97.20;;;;;;1715972;28;20625;-69
2022/05/18 08:22:40;;;;;;;4.75;3.70;;;25.00;97.20;;;;;;1714217;28;20235;-68
2022/05/18 08:23:32;;;;;;;3.63;3.22;;;25.10;97.20;;;;;;1714800;28;20205;-69
2022/05/18 08:24:23;;;;;;;4.55;4.15;;;25.10;97.20;;;;;;1715714;28;20217;-69
2022/05/18 08:25:15;;;;;;;5.03;3.83;;;25.10;97.20;;;;;;1715195;28;21646;-69
2022/05/18 08:26:07;;;;;;;3.67;3.30;;;25.20;97.20;;;;;;1715325;28;20696;-68
2022/05/18 08:26:58;;;;;;;4.38;3.13;;;25.20;97.20;;;;;;1714396;28;20197;-69
2022/05/18 08:27:50;;;;;;;6.93;4.00;;;25.30;97.20;;;;;;1712039;28;20700;-69
2022/05/18 08:28:42;;;;;;;4.00;3.25;;;25.30;97.20;;;;;;1707184;28;20203;-68
2022/05/18 08:29:35;;;;;;;5.95;3.90;;;25.40;97.20;;;;;;1709225;28;20217;-68
2022/05/18 08:30:30;;;;;;;3.75;3.45;;;25.40;97.20;;;;;;1707571;28;20216;-68
2022/05/18 08:31:23;;;;;;;4.03;3.60;;;25.50;97.20;;;;;;1708506;28;20205;-69
2022/05/18 08:32:14;;;;;;;4.05;3.75;;;25.50;97.20;;;;;;1708187;28;20244;-69
2022/05/18 08:33:05;;;;;;;3.95;3.65;;;25.50;97.20;;;;;;1711021;28;20202;-69
2022/05/18 08:33:57;;;;;;;5.33;4.10;;;25.50;97.20;;;;;;1715845;28;20671;-69
2022/05/18 08:34:48;;;;;;;5.22;3.58;;;25.60;97.20;;;;;;1714297;28;20225;-69
2022/05/18 08:35:43;;;;;;;5.77;3.40;;;25.60;97.20;;;;;;1715802;28;20212;-69
2022/05/18 08:36:34;;;;;;;4.95;3.60;;;25.60;97.20;;;;;;1714828;28;20640;-69
2022/05/18 08:37:26;;;;;;;3.73;3.43;;;25.70;97.20;;;;;;1714563;28;20586;-68
2022/05/18 08:38:19;;;;;;;4.85;4.35;;;25.70;97.20;;;;;;1715178;28;20235;-68
2022/05/18 08:39:10;;;;;;;5.80;4.32;;;25.70;97.20;;;;;;1715556;28;20206;-68
2022/05/18 08:40:01;;;;;;;6.63;5.88;;;25.80;97.20;;;;;;1715035;28;20251;-69
2022/05/18 08:40:57;;;;;;;6.43;4.17;;;25.80;97.20;;;;;;1715936;28;20220;-69
2022/05/18 08:41:50;;;;;;;5.10;4.35;;;25.80;97.20;;;;;;1716086;28;20284;-69
2022/05/18 08:42:42;;;;;;;3.80;3.50;;;25.90;97.20;;;;;;1715302;28;20245;-69
2022/05/18 08:43:35;;;;;;;5.40;4.40;;;25.90;97.20;;;;;;1715236;28;20193;-69
2022/05/18 08:44:31;;;;;;;6.88;6.22;;;26.00;97.20;;;;;;1714390;28;20264;-69
2022/05/18 08:45:22;;;;;;;4.93;4.53;;;26.10;97.20;;;;;;1714795;28;20212;-69
2022/05/18 08:46:17;;;;;;;4.60;4.20;;;26.10;97.20;;;;;;1715409;28;20186;-68
2022/05/18 08:47:11;;;;;;;6.60;4.00;;;26.20;97.20;;;;;;1715918;28;20280;-69
2022/05/18 08:48:06;;;;;;;5.40;3.83;;;26.30;97.20;;;;;;1715127;28;20197;-69
2022/05/18 08:49:03;;;;;;;4.85;3.70;;;26.30;97.20;;;;;;1716000;28;20199;-69
2022/05/18 08:49:58;;;;;;;6.03;4.20;;;26.40;97.20;;;;;;1713785;28;20362;-69
2022/05/18 08:50:54;;;;;;;6.30;4.63;;;26.40;97.20;;;;;;1714812;28;20488;-69
2022/05/18 08:51:58;;;;;;;4.90;4.18;;;26.40;97.20;;;;;;1714453;28;20300;-69
2022/05/18 08:52:59;;;;;;;6.13;4.60;;;26.50;97.20;;;;;;1715689;28;20760;-69
2022/05/18 08:54:00;;;;;;;5.75;3.92;;;26.50;97.20;;;;;;1715283;28;20251;-69
2022/05/18 08:55:11;;;;;;;5.07;3.95;;;26.50;97.20;;;;;;1715614;28;20209;-69
2022/05/18 08:56:09;;;;;;;4.00;3.58;;;26.50;97.20;;;;;;1716991;28;20228;-68
2022/05/18 08:57:04;;;;;;;3.65;3.35;;;26.50;97.20;;;;;;1715799;28;20204;-69
2022/05/18 08:57:57;;;;;;;4.25;3.78;;;26.50;97.20;;;;;;1717320;28;20220;-69
2022/05/18 08:58:51;;;;;;;4.80;3.63;;;26.50;97.20;;;;;;1716777;28;20260;-69
2022/05/18 08:59:43;;;;;;;6.82;4.20;;;26.50;97.20;;;;;;1715987;28;20657;-69
2022/05/18 09:00:39;;;;;;;3.83;3.53;;;26.50;97.20;;;;;;1717672;28;20281;-69
2022/05/18 09:01:40;;;;;;;4.30;3.58;;;26.50;97.20;;;;;;1716158;28;20225;-68
2022/05/18 09:02:35;;;;;;;4.68;4.07;;;26.50;97.20;;;;;;1716743;28;20217;-69
2022/05/18 09:03:34;;;;;;;5.18;4.00;;;26.60;97.20;;;;;;1715692;28;20228;-68
2022/05/18 09:04:31;;;;;;;6.65;4.32;;;26.60;97.20;;;;;;1715814;28;20216;-69
2022/05/18 09:05:31;;;;;;;3.65;3.35;;;26.60;97.20;;;;;;1716154;28;20201;-69
2022/05/18 09:06:28;;;;;;;3.90;3.50;;;26.60;97.20;;;;;;1716024;28;20636;-69
2022/05/18 09:07:25;;;;;;;6.18;3.67;;;26.60;97.20;;;;;;1716012;28;20860;-69
2022/05/18 09:08:21;;;;;;;3.92;3.55;;;26.60;97.20;;;;;;1715813;28;20212;-69
2022/05/18 09:10:31;;;;;;;4.07;3.30;;;26.70;97.20;;;;;;1716024;28;20443;-69
2022/05/18 09:11:23;;;;;;;5.45;3.55;;;26.70;97.20;;;;;;1715372;28;20681;-69
2022/05/18 09:12:15;;;;;;;4.43;3.55;;;26.70;97.20;;;;;;1716532;28;20196;-69
2022/05/18 09:13:07;;;;;;;3.85;3.55;;;26.70;97.20;;;;;;1715408;28;20197;-68
2022/05/18 09:13:57;;;;;;;4.10;3.80;;;26.70;97.20;;;;;;1715901;28;20190;-69
2022/05/18 09:14:49;;;;;;;4.17;3.40;;;26.70;97.20;;;;;;1716052;28;20194;-69
2022/05/18 09:15:52;;;;;;;9.63;3.85;;;26.70;97.20;;;;;;1715120;28;20240;-69
2022/05/18 09:16:51;;;;;;;3.83;3.50;;;26.80;97.20;;;;;;1715253;28;20767;-69
2022/05/18 09:17:50;;;;;;;4.57;3.67;;;26.90;97.20;;;;;;1715400;28;20197;-69
2022/05/18 09:18:47;;;;;;;5.47;3.92;;;27.00;97.20;;;;;;1714003;28;20194;-69
2022/05/18 09:19:47;;;;;;;4.20;3.75;;;27.00;97.20;;;;;;1715165;28;20346;-68
2022/05/18 09:20:47;;;;;;;4.80;4.30;;;27.10;97.20;;;;;;1716896;28;20416;-69
2022/05/18 09:21:47;;;;;;;4.45;3.40;;;27.00;97.20;;;;;;1716390;28;20245;-69
2022/05/18 09:22:57;;;;;;;3.65;3.35;;;27.10;97.20;;;;;;1716237;28;20209;-69
2022/05/18 09:23:59;;;;;;;6.03;3.30;;;27.10;97.20;;;;;;1716463;28;20209;-69
2022/05/18 09:25:06;;;;;;;4.72;3.58;;;27.20;97.20;;;;;;1716521;28;20457;-69
2022/05/18 09:26:10;;;;;;;3.20;2.90;;;27.20;97.20;;;;;;1716834;28;20278;-69
2022/05/18 09:27:23;;;;;;;3.03;2.72;;;27.30;97.20;;;;;;1716465;28;20652;-69
2022/05/18 09:28:23;;;;;;;3.90;3.50;;;27.40;97.20;;;;;;1715581;28;20197;-69
2022/05/18 09:29:25;;;;;;;3.50;3.20;;;27.50;97.20;;;;;;1715157;28;20644;-68
2022/05/18 09:30:22;;;;;;;3.60;3.30;;;27.60;97.20;;;;;;1715738;28;20202;-69
2022/05/18 09:31:28;;;;;;;4.47;3.20;;;27.60;97.20;;;;;;1715822;28;20236;-69
2022/05/18 09:32:33;;;;;;;4.80;3.25;;;27.60;97.20;;;;;;1715390;28;20205;-69
2022/05/18 09:33:38;;;;;;;4.45;3.65;;;27.70;97.20;;;;;;1715191;28;20277;-69
2022/05/18 09:34:54;;;;;;;5.30;3.70;;;27.70;97.20;;;;;;1715255;28;20208;-69
2022/05/18 09:36:04;;;;;;;3.63;3.30;;;27.80;97.20;;;;;;1715698;28;20205;-69
2022/05/18 09:37:12;;;;;;;3.97;3.50;;;27.80;97.20;;;;;;1715589;28;20217;-69
2022/05/18 09:38:09;;;;;;;5.30;3.78;;;27.80;97.20;;;;;;1715555;28;20207;-69
2022/05/18 09:39:04;;;;;;;4.85;3.85;;;27.90;97.20;;;;;;1716400;28;20680;-69
2022/05/18 09:40:02;;;;;;;4.10;3.70;;;28.00;97.20;;;;;;1716489;28;20221;-69
2022/05/18 09:40:53;;;;;;;3.80;3.15;;;28.00;97.20;;;;;;1716002;28;20210;-69
2022/05/18 09:41:49;;;;;;;4.23;3.40;;;28.10;97.20;;;;;;1716119;28;20284;-69
2022/05/18 09:42:47;;;;;;;3.63;3.33;;;28.20;97.20;;;;;;1715963;28;20245;-69
2022/05/18 09:43:46;;;;;;;3.80;3.38;;;28.20;97.20;;;;;;1714749;28;20205;-69
2022/05/18 09:44:42;;;;;;;3.35;2.95;;;28.30;97.20;;;;;;1716207;28;20272;-69
2022/05/18 09:45:38;;;;;;;4.35;3.35;;;28.40;97.20;;;;;;1716016;28;20201;-69
2022/05/18 09:46:30;;;;;;;6.03;3.50;;;28.40;97.20;;;;;;1716490;28;20739;-69